Time;durP1;ratioP1;P1;durP2;ratioP2;P2;SDS_P1;SDS_P2;PMS_P1;PMS_P2;Temp;Humidity;BMP_temperature;BMP_pressure;BME280_temperature;BME280_humidity;BME280_pressure;Samples;Min_cycle;Max_cycle;Signal;HPM_P1;HPM_P2
2023/08/26 00:01:22;;;;;;;107.18;53.90;;;;;;;18.28;98.48;99667.09;10244204;28;20229;-77
2023/08/26 00:06:25;;;;;;;90.15;49.20;;;;;;;18.30;97.80;99656.03;10244537;28;20051;-77
2023/08/26 00:11:27;;;;;;;95.85;51.15;;;;;;;18.31;97.56;99639.53;10244420;28;20051;-78
2023/08/26 00:16:32;;;;;;;103.65;55.85;;;;;;;18.29;97.97;99638.03;10252007;28;20069;-77
2023/08/26 00:21:34;;;;;;;97.78;52.63;;;;;;;18.06;97.99;99640.91;10245704;28;20085;-77
2023/08/26 00:26:37;;;;;;;100.45;56.05;;;;;;;18.21;97.05;99633.59;10247576;28;20039;-78
2023/08/26 00:31:42;;;;;;;106.32;53.90;;;;;;;18.14;97.55;99640.81;10236350;28;20046;-78
2023/08/26 00:36:44;;;;;;;103.97;54.20;;;;;;;18.05;97.42;99655.56;10249446;28;20039;-77
2023/08/26 00:41:48;;;;;;;103.72;55.45;;;;;;;17.96;97.80;99653.94;10246741;28;20101;-77
2023/08/26 00:46:52;;;;;;;106.20;55.45;;;;;;;18.10;96.70;99656.66;10240990;28;20102;-77
2023/08/26 00:51:56;;;;;;;109.03;57.50;;;;;;;17.87;98.61;99639.63;10243862;28;20144;-77
2023/08/26 00:56:59;;;;;;;100.88;56.83;;;;;;;17.96;97.00;99654.75;10242440;28;21187;-78
2023/08/26 01:02:04;;;;;;;103.50;55.58;;;;;;;18.01;96.75;99648.78;10244567;28;20046;-77
2023/08/26 01:07:08;;;;;;;111.35;56.78;;;;;;;18.06;96.50;99652.63;10239986;28;20047;-76
2023/08/26 01:12:23;;;;;;;101.88;55.00;;;;;;;18.16;96.37;99655.06;10235154;28;20047;-77
2023/08/26 01:17:27;;;;;;;99.03;54.97;;;;;;;18.12;96.13;99651.84;10236124;28;20051;-77
2023/08/26 01:22:32;;;;;;;107.68;56.35;;;;;;;17.99;96.66;99649.00;10240259;28;20083;-77
2023/08/26 01:27:36;;;;;;;107.65;56.83;;;;;;;18.07;95.91;99665.19;10232339;28;20411;-77
2023/08/26 01:32:45;;;;;;;102.72;54.35;;;;;;;17.93;96.25;99664.13;10238007;28;20062;-77
2023/08/26 01:37:49;;;;;;;101.45;53.40;;;;;;;17.97;96.42;99658.34;10233904;28;20058;-76
2023/08/26 01:42:57;;;;;;;97.60;51.97;;;;;;;17.88;96.35;99666.59;10231439;28;20043;-76
2023/08/26 01:47:59;;;;;;;92.05;51.28;;;;;;;17.73;97.28;99671.19;10233845;28;20054;-77
2023/08/26 01:53:03;;;;;;;82.90;47.15;;;;;;;17.81;95.07;99664.81;10229360;28;20634;-77
2023/08/26 01:58:07;;;;;;;77.53;44.50;;;;;;;17.84;94.43;99650.84;10239771;28;20062;-77
2023/08/26 02:03:10;;;;;;;80.72;45.47;;;;;;;17.80;94.25;99649.53;10236418;28;20050;-77
2023/08/26 02:08:12;;;;;;;81.72;45.15;;;;;;;17.61;93.88;99659.97;10250116;28;20113;-77
2023/08/26 02:13:17;;;;;;;77.60;46.33;;;;;;;17.46;94.79;99676.25;10251669;28;20425;-77
2023/08/26 02:18:19;;;;;;;78.85;43.45;;;;;;;17.43;94.86;99676.63;10230285;28;20499;-77
2023/08/26 02:23:22;;;;;;;78.05;44.88;;;;;;;17.42;94.75;99671.41;10225225;28;20047;-77
2023/08/26 02:28:27;;;;;;;76.55;43.13;;;;;;;17.42;94.39;99672.22;10231799;28;20116;-77
2023/08/26 02:33:30;;;;;;;75.75;43.20;;;;;;;17.28;94.42;99680.34;10232449;28;20053;-77
2023/08/26 02:38:33;;;;;;;72.85;40.70;;;;;;;17.24;94.53;99680.72;10248087;28;20054;-78
2023/08/26 02:43:37;;;;;;;72.00;41.00;;;;;;;16.89;95.99;99682.19;10250250;28;20059;-78
2023/08/26 02:48:41;;;;;;;70.28;39.75;;;;;;;17.11;93.39;99688.59;10258209;28;20108;-78
2023/08/26 02:53:43;;;;;;;64.95;40.33;;;;;;;17.23;92.54;99694.47;10242778;28;20086;-78
2023/08/26 02:58:47;;;;;;;69.22;40.65;;;;;;;17.26;92.44;99694.13;10243917;28;21297;-78
2023/08/26 03:03:50;;;;;;;63.95;37.88;;;;;;;17.23;91.55;99706.19;10255125;28;20062;-78
2023/08/26 03:08:53;;;;;;;62.22;37.28;;;;;;;16.93;93.04;99694.38;10248313;28;20413;-78
2023/08/26 03:13:58;;;;;;;64.35;40.65;;;;;;;17.28;91.00;99700.22;10243234;28;20284;-78
2023/08/26 03:19:00;;;;;;;66.15;38.65;;;;;;;17.42;90.47;99710.25;10241337;28;20458;-78
2023/08/26 03:24:06;;;;;;;72.25;38.63;;;;;;;17.24;90.46;99710.56;10239673;28;20185;-78
2023/08/26 03:29:10;;;;;;;67.07;38.95;;;;;;;17.27;90.81;99711.22;10240339;28;20067;-78
2023/08/26 03:34:13;;;;;;;64.60;38.60;;;;;;;17.17;90.58;99698.78;10241804;28;20051;-78
2023/08/26 03:39:15;;;;;;;65.88;37.95;;;;;;;17.21;90.18;99713.66;10244508;28;20054;-77
2023/08/26 03:44:20;;;;;;;59.65;36.78;;;;;;;16.99;90.10;99714.50;10243857;28;20106;-77
2023/08/26 03:49:23;;;;;;;68.25;39.47;;;;;;;17.09;89.80;99723.25;10237378;28;20101;-78
2023/08/26 03:54:26;;;;;;;65.18;37.58;;;;;;;17.11;89.47;99723.88;10239593;28;20514;-78
2023/08/26 03:59:30;;;;;;;67.07;38.55;;;;;;;17.04;89.49;99722.94;10246156;28;20193;-78
2023/08/26 04:04:33;;;;;;;61.35;36.38;;;;;;;17.09;88.66;99722.41;10243028;28;20133;-78
2023/08/26 04:09:36;;;;;;;58.00;38.20;;;;;;;17.15;88.51;99721.69;10244138;28;20161;-77
2023/08/26 04:14:40;;;;;;;63.83;37.17;;;;;;;17.18;88.63;99716.75;10236624;28;20185;-78
2023/08/26 04:19:44;;;;;;;60.28;36.35;;;;;;;17.22;88.91;99728.06;10238004;28;20142;-78
2023/08/26 04:24:47;;;;;;;62.55;38.50;;;;;;;17.23;88.57;99722.47;10237755;28;20062;-78
2023/08/26 04:29:51;;;;;;;59.67;36.97;;;;;;;17.25;88.19;99717.69;10237003;28;20073;-77
2023/08/26 04:34:54;;;;;;;63.10;38.78;;;;;;;17.23;88.25;99722.47;10233088;28;21189;-78
2023/08/26 04:39:57;;;;;;;60.78;38.40;;;;;;;17.24;88.59;99735.00;10238001;28;20516;-78
2023/08/26 04:45:02;;;;;;;62.50;37.35;;;;;;;17.11;88.79;99733.91;10239296;28;20050;-78
2023/08/26 04:50:05;;;;;;;62.05;37.08;;;;;;;16.83;89.14;99758.88;10233971;28;20099;-77
2023/08/26 04:55:09;;;;;;;59.97;36.30;;;;;;;16.54;90.66;99765.84;10239810;28;20057;-78
2023/08/26 05:00:16;;;;;;;59.47;36.28;;;;;;;16.70;89.87;99766.75;10233813;28;20069;-79
2023/08/26 05:05:20;;;;;;;64.82;38.00;;;;;;;16.76;88.64;99777.75;10243356;28;20097;-77
2023/08/26 05:10:23;;;;;;;51.63;31.15;;;;;;;16.40;86.99;99776.56;10242622;28;20046;-77
2023/08/26 05:15:28;;;;;;;31.98;22.65;;;;;;;15.73;82.95;99782.38;10239898;28;20057;-79
2023/08/26 05:20:31;;;;;;;27.45;15.25;;;;;;;15.76;76.19;99792.88;10251766;28;20051;-80
2023/08/26 05:25:35;;;;;;;9.45;5.28;;;;;;;15.12;71.84;99812.50;10257678;28;20046;-78
2023/08/26 05:30:40;;;;;;;12.60;6.20;;;;;;;14.82;72.26;99835.59;10239901;28;20051;-78
2023/08/26 05:35:44;;;;;;;7.72;5.13;;;;;;;14.85;72.31;99861.47;10248197;28;20121;-78
2023/08/26 05:40:47;;;;;;;6.20;4.68;;;;;;;14.56;73.22;99857.28;10247611;28;20046;-81
2023/08/26 05:45:51;;;;;;;6.32;4.70;;;;;;;14.48;71.75;99851.84;10262588;28;20047;-79
2023/08/26 05:50:58;;;;;;;3.75;2.92;;;;;;;13.92;72.42;99857.63;10258715;28;21474;-77
2023/08/26 05:56:01;;;;;;;8.60;3.83;;;;;;;14.36;72.18;99862.09;10256525;28;20081;-80
2023/08/26 06:01:05;;;;;;;9.25;3.28;;;;;;;13.93;74.47;99859.31;10257533;28;20124;-78
2023/08/26 06:06:08;;;;;;;6.70;3.15;;;;;;;13.94;74.11;99879.91;10265370;28;20792;-78
2023/08/26 06:11:11;;;;;;;6.82;2.90;;;;;;;13.96;72.18;99878.91;10257170;28;20128;-81
2023/08/26 06:16:19;;;;;;;6.38;3.00;;;;;;;13.74;72.07;99901.84;10256307;28;20102;-78
2023/08/26 06:21:22;;;;;;;7.45;2.10;;;;;;;14.08;72.00;99893.84;10251524;28;20075;-79
2023/08/26 06:26:25;;;;;;;3.42;2.20;;;;;;;13.79;73.36;99913.88;10259993;28;20054;-78
2023/08/26 06:31:29;;;;;;;4.95;2.60;;;;;;;14.26;72.25;99923.47;10263201;28;20118;-81
2023/08/26 06:36:32;;;;;;;6.80;2.35;;;;;;;14.09;72.48;99931.47;10261138;28;20086;-78
2023/08/26 06:41:35;;;;;;;10.68;2.60;;;;;;;14.35;72.57;99917.13;10254751;28;20054;-77
2023/08/26 06:46:41;;;;;;;4.97;2.33;;;;;;;14.53;71.09;99928.72;10254313;28;20085;-79
2023/08/26 06:51:44;;;;;;;6.05;2.47;;;;;;;14.63;70.48;99923.22;10251920;28;20060;-77
2023/08/26 06:56:47;;;;;;;7.00;2.22;;;;;;;14.48;70.44;99916.72;10254587;28;20163;-79
2023/08/26 07:01:51;;;;;;;5.85;1.85;;;;;;;14.96;69.46;99912.53;10255365;28;20058;-79
2023/08/26 07:06:54;;;;;;;5.43;2.38;;;;;;;14.77;69.31;99917.19;10265477;28;20043;-77
2023/08/26 07:11:57;;;;;;;6.57;2.03;;;;;;;15.17;69.57;99928.31;10258046;28;20055;-80
2023/08/26 07:17:03;;;;;;;9.05;3.30;;;;;;;15.01;69.67;99924.53;10261970;28;20153;-79
2023/08/26 07:22:06;;;;;;;6.82;2.60;;;;;;;15.35;67.09;99917.38;10257660;28;20057;-84
2023/08/26 07:27:10;;;;;;;4.65;2.17;;;;;;;15.14;66.13;99929.50;10260769;28;20102;-80
2023/08/26 07:32:15;;;;;;;2.25;1.98;;;;;;;15.39;67.01;99943.13;10254482;28;20047;-83
2023/08/26 07:37:18;;;;;;;6.35;1.70;;;;;;;15.54;66.43;99936.00;10272755;28;20051;-80
2023/08/26 07:42:21;;;;;;;4.90;1.75;;;;;;;15.46;65.48;99938.72;10257993;28;20046;-81
2023/08/26 07:47:25;;;;;;;3.72;1.70;;;;;;;16.25;64.34;99930.91;10257301;28;20129;-79
2023/08/26 07:52:47;;;;;;;5.70;2.03;;;;;;;16.06;63.90;99929.41;10248337;28;20078;-79
2023/08/26 07:57:50;;;;;;;4.90;1.45;;;;;;;15.92;63.00;99930.94;10259381;28;20248;-81
2023/08/26 08:02:55;;;;;;;5.57;1.52;;;;;;;16.18;64.14;99947.03;10251970;28;20079;-80
2023/08/26 08:07:58;;;;;;;6.82;1.42;;;;;;;16.18;62.90;99949.75;10251084;28;20061;-78
2023/08/26 08:13:01;;;;;;;5.68;1.30;;;;;;;15.93;63.22;99957.00;10250117;28;20076;-83
2023/08/26 08:18:06;;;;;;;2.05;1.15;;;;;;;15.57;62.20;99951.91;10250275;28;20055;-78
2023/08/26 08:23:09;;;;;;;3.55;1.20;;;;;;;16.91;61.81;99926.16;10252546;28;20093;-77
2023/08/26 08:28:12;;;;;;;11.45;2.42;;;;;;;17.01;59.62;99940.34;10260858;28;20778;-80
2023/08/26 08:33:16;;;;;;;7.97;1.95;;;;;;;16.86;59.50;99931.25;10250109;28;20413;-79
2023/08/26 08:38:19;;;;;;;3.35;1.27;;;;;;;16.54;60.58;99936.63;10260341;28;20042;-79
2023/08/26 08:43:23;;;;;;;5.18;1.13;;;;;;;17.00;59.40;99941.34;10249699;28;20050;-79
2023/08/26 08:48:28;;;;;;;6.05;1.50;;;;;;;17.14;58.97;99943.38;10247447;28;20194;-79
2023/08/26 08:53:31;;;;;;;4.90;1.30;;;;;;;17.08;59.36;99956.75;10248259;28;20051;-79
2023/08/26 08:58:35;;;;;;;2.38;1.42;;;;;;;17.51;59.56;99946.38;10251563;28;20745;-77
2023/08/26 09:03:41;;;;;;;3.55;1.33;;;;;;;17.30;59.71;99942.41;10248864;28;20043;-77
2023/08/26 09:08:45;;;;;;;4.55;1.40;;;;;;;17.50;59.08;99945.53;10250467;28;20177;-76
2023/08/26 09:13:48;;;;;;;6.45;1.95;;;;;;;18.30;57.84;99944.22;10242215;28;21235;-78
2023/08/26 09:18:56;;;;;;;5.72;1.42;;;;;;;17.29;57.95;99961.59;10249212;28;20058;-78
2023/08/26 09:24:02;;;;;;;3.20;1.17;;;;;;;17.32;58.75;99966.69;10254606;28;20418;-80
2023/08/26 09:29:12;;;;;;;4.55;1.30;;;;;;;17.03;59.28;99960.88;10260627;28;20053;-81
2023/08/26 09:34:28;;;;;;;3.22;1.65;;;;;;;17.56;58.70;99977.38;10255774;28;20047;-80
2023/08/26 09:39:30;;;;;;;4.50;1.60;;;;;;;17.03;59.58;99958.16;10260648;28;20051;-78
2023/08/26 09:44:33;;;;;;;5.63;1.55;;;;;;;18.14;57.63;99964.22;10271209;28;20046;-79
2023/08/26 09:49:38;;;;;;;3.75;1.67;;;;;;;18.44;55.98;99967.84;10257467;28;20073;-76
2023/08/26 09:54:43;;;;;;;3.42;1.70;;;;;;;17.65;58.26;99965.44;10255866;28;20602;-76
2023/08/26 09:59:47;;;;;;;4.95;1.70;;;;;;;17.82;57.22;99965.31;10255007;28;20159;-79
2023/08/26 10:04:56;;;;;;;4.93;1.48;;;;;;;18.43;55.55;99974.31;10247383;28;20051;-77
2023/08/26 10:10:11;;;;;;;1.25;1.00;;;;;;;18.18;54.21;99968.25;10252178;28;20053;-76
2023/08/26 10:15:18;;;;;;;4.25;1.50;;;;;;;19.32;52.61;99968.00;10255051;28;20710;-77
2023/08/26 10:20:22;;;;;;;2.83;1.08;;;;;;;18.40;53.25;99976.53;10251975;28;20043;-77
2023/08/26 10:25:28;;;;;;;3.80;1.52;;;;;;;19.07;52.59;99960.16;10243655;28;20546;-77
2023/08/26 10:30:31;;;;;;;2.05;1.00;;;;;;;19.06;51.88;99977.53;10246720;28;20050;-77
2023/08/26 10:35:40;;;;;;;2.40;1.20;;;;;;;18.80;52.45;99972.56;10254734;28;20073;-77
2023/08/26 10:40:43;;;;;;;7.90;1.75;;;;;;;18.96;52.14;99964.22;10250244;28;20125;-76
2023/08/26 10:45:48;;;;;;;1.73;0.90;;;;;;;19.19;51.15;99966.78;10274637;28;20046;-78
2023/08/26 10:51:00;;;;;;;3.25;1.42;;;;;;;20.74;49.06;99966.16;10251858;28;20046;-77
2023/08/26 10:56:14;;;;;;;2.20;1.20;;;;;;;19.58;49.61;99981.09;10250339;28;20522;-79
2023/08/26 11:01:17;;;;;;;2.65;1.10;;;;;;;18.64;51.19;99976.28;10260540;28;20442;-79
2023/08/26 11:06:28;;;;;;;2.95;1.40;;;;;;;19.21;48.91;99970.19;10268819;28;20051;-79
2023/08/26 11:11:32;;;;;;;3.38;1.13;;;;;;;21.95;43.76;99970.19;10279200;28;20046;-77
2023/08/26 11:16:35;;;;;;;4.32;1.65;;;;;;;22.36;42.52;99966.41;10255607;28;20059;-78
2023/08/26 11:21:40;;;;;;;3.80;1.20;;;;;;;22.53;43.33;99967.66;10259845;28;20062;-76
2023/08/26 11:26:47;;;;;;;3.25;1.20;;;;;;;22.53;44.44;99954.81;10249936;28;20046;-78
2023/08/26 11:31:50;;;;;;;2.28;1.35;;;;;;;21.53;45.35;99970.31;10251401;28;20046;-76
2023/08/26 11:36:54;;;;;;;5.28;1.73;;;;;;;22.84;42.92;99966.13;10250704;28;20138;-77
2023/08/26 11:41:58;;;;;;;4.75;1.65;;;;;;;24.55;40.20;99962.59;10240350;28;20556;-76
2023/08/26 11:47:01;;;;;;;4.60;1.20;;;;;;;23.12;40.26;99977.66;10258564;28;20054;-78
2023/08/26 11:52:06;;;;;;;3.40;1.40;;;;;;;22.07;42.63;99983.00;10264080;28;20425;-76
2023/08/26 11:57:09;;;;;;;1.45;1.30;;;;;;;21.80;44.13;99978.56;10257837;28;20054;-76
2023/08/26 12:02:22;;;;;;;4.53;1.55;;;;;;;23.21;42.74;99970.03;10253048;28;20055;-77
2023/08/26 12:07:27;;;;;;;1.60;1.50;;;;;;;22.69;43.20;99956.28;10242737;28;20083;-76
2023/08/26 12:12:30;;;;;;;3.08;1.40;;;;;;;21.74;44.60;99982.94;10246278;28;20054;-77
2023/08/26 12:17:33;;;;;;;3.92;1.50;;;;;;;20.92;44.66;99962.88;10249537;28;20058;-75
2023/08/26 12:22:40;;;;;;;2.72;1.42;;;;;;;22.16;44.35;99958.19;10249407;28;20059;-77
2023/08/26 12:27:47;;;;;;;2.00;1.60;;;;;;;22.08;43.01;99967.47;10254605;28;20077;-77
2023/08/26 12:32:50;;;;;;;1.77;1.17;;;;;;;23.32;41.30;99976.72;10251593;28;20062;-76
2023/08/26 12:37:54;;;;;;;3.65;1.52;;;;;;;23.26;41.19;99950.19;10256281;28;20489;-76
2023/08/26 12:42:58;;;;;;;3.28;1.20;;;;;;;22.91;42.63;99951.38;10256655;28;20050;-77
2023/08/26 12:48:01;;;;;;;2.83;1.35;;;;;;;24.03;40.39;99948.25;10257908;28;20059;-75
2023/08/26 12:53:05;;;;;;;2.25;1.30;;;;;;;23.57;41.74;99942.00;10249616;28;20062;-78
2023/08/26 12:58:08;;;;;;;2.40;1.23;;;;;;;25.04;39.95;99946.22;10258071;28;20130;-77
2023/08/26 13:03:15;;;;;;;1.23;1.13;;;;;;;24.70;41.45;99962.22;10257965;28;20098;-78
2023/08/26 13:08:20;;;;;;;11.48;1.45;;;;;;;21.89;43.52;99966.41;10257308;28;20513;-76
2023/08/26 13:13:23;;;;;;;2.58;1.20;;;;;;;23.08;42.16;99979.09;10245223;28;20046;-77
2023/08/26 13:18:26;;;;;;;1.13;0.98;;;;;;;23.17;41.57;99983.31;10246171;28;20054;-75
2023/08/26 13:23:30;;;;;;;3.85;1.27;;;;;;;22.22;44.52;99965.59;10246442;28;20093;-77
2023/08/26 13:28:33;;;;;;;2.45;1.25;;;;;;;22.17;44.14;99971.66;10243323;28;20047;-77
2023/08/26 13:33:36;;;;;;;3.28;1.38;;;;;;;23.52;42.28;99971.13;10241643;28;20540;-77
2023/08/26 13:38:40;;;;;;;1.88;1.20;;;;;;;23.69;42.16;99965.97;10256582;28;20043;-77
2023/08/26 13:43:43;;;;;;;2.53;1.25;;;;;;;23.69;41.43;99965.97;10250814;28;20051;-77
2023/08/26 13:48:46;;;;;;;1.55;1.15;;;;;;;23.33;43.08;99976.50;10250209;28;20823;-77
2023/08/26 13:53:51;;;;;;;1.73;0.90;;;;;;;24.06;40.79;99970.59;10249803;28;20054;-77
2023/08/26 13:58:54;;;;;;;2.10;0.75;;;;;;;24.79;39.56;99977.31;10251209;28;20055;-78
2023/08/26 14:03:57;;;;;;;1.65;0.80;;;;;;;23.30;40.89;99976.09;10258937;28;20054;-77
2023/08/26 14:09:01;;;;;;;0.60;0.60;;;;;;;23.26;42.32;99974.84;10259467;28;21219;-76
2023/08/26 14:14:05;;;;;;;2.28;0.90;;;;;;;23.24;42.36;99968.75;10257471;28;20047;-79
2023/08/26 14:19:08;;;;;;;1.00;0.90;;;;;;;23.90;41.45;99976.63;10266374;28;20070;-78
2023/08/26 14:24:14;;;;;;;2.45;0.90;;;;;;;22.81;42.99;99958.34;10242570;28;20050;-79
2023/08/26 14:29:16;;;;;;;2.78;0.70;;;;;;;21.66;44.12;99962.13;10264368;28;20050;-78
2023/08/26 14:34:20;;;;;;;1.52;0.80;;;;;;;21.51;44.12;99969.66;10258027;28;20058;-76
2023/08/26 14:39:27;;;;;;;0.90;0.65;;;;;;;22.32;41.54;99963.22;10260053;28;20043;-76
2023/08/26 14:44:32;;;;;;;2.42;0.68;;;;;;;22.73;42.86;99957.50;10264117;28;20061;-77
2023/08/26 14:49:36;;;;;;;1.75;0.93;;;;;;;23.49;40.80;99960.63;10265114;28;20071;-77
2023/08/26 14:54:41;;;;;;;1.30;0.85;;;;;;;22.95;40.37;99947.13;10257558;28;20050;-76
2023/08/26 14:59:44;;;;;;;1.60;0.93;;;;;;;23.39;39.90;99944.63;10254276;28;20126;-76
2023/08/26 15:04:47;;;;;;;1.35;0.68;;;;;;;23.23;39.65;99939.66;10261156;28;20287;-79
2023/08/26 15:09:51;;;;;;;1.98;0.80;;;;;;;22.51;41.85;99942.41;10243465;28;20082;-77
2023/08/26 15:14:54;;;;;;;1.88;0.63;;;;;;;23.86;39.62;99931.50;10256548;28;20055;-77
2023/08/26 15:19:59;;;;;;;2.90;0.75;;;;;;;22.55;41.19;99921.78;10257827;28;20047;-78
2023/08/26 15:25:04;;;;;;;1.50;0.63;;;;;;;23.60;39.18;99922.38;10239822;28;20070;-76
2023/08/26 15:30:10;;;;;;;1.42;0.70;;;;;;;23.72;38.94;99911.53;10249275;28;20051;-78
2023/08/26 15:35:13;;;;;;;1.02;0.60;;;;;;;23.94;39.65;99922.16;10247582;28;20477;-77
2023/08/26 15:40:17;;;;;;;2.17;0.77;;;;;;;24.51;38.47;99903.69;10256567;28;20070;-77
2023/08/26 15:45:20;;;;;;;1.40;0.60;;;;;;;24.10;38.79;99908.72;10273661;28;20051;-77
2023/08/26 15:50:23;;;;;;;3.92;0.77;;;;;;;24.49;38.90;99895.72;10281915;28;20110;-78
2023/08/26 15:55:28;;;;;;;0.93;0.60;;;;;;;24.43;39.04;99896.59;10257141;28;20051;-76
2023/08/26 16:00:31;;;;;;;3.92;1.05;;;;;;;23.98;39.47;99883.09;10253964;28;20043;-77
2023/08/26 16:05:34;;;;;;;0.95;0.55;;;;;;;24.25;37.30;99880.09;10255060;28;20053;-79
2023/08/26 16:10:39;;;;;;;2.30;0.60;;;;;;;24.47;37.73;99875.88;10255258;28;20050;-77
2023/08/26 16:15:42;;;;;;;3.45;0.73;;;;;;;24.15;37.18;99866.06;10259215;28;20054;-78
2023/08/26 16:20:45;;;;;;;1.20;0.80;;;;;;;23.58;38.56;99860.59;10260029;28;20057;-77
2023/08/26 16:25:49;;;;;;;2.33;0.63;;;;;;;23.56;39.51;99858.09;10256157;28;20054;-77
2023/08/26 16:30:53;;;;;;;3.50;0.68;;;;;;;22.88;39.91;99846.91;10252301;28;20055;-77
2023/08/26 16:35:57;;;;;;;0.80;0.50;;;;;;;23.12;39.18;99848.91;10257656;28;20050;-78
2023/08/26 16:41:02;;;;;;;1.00;0.50;;;;;;;23.28;39.53;99844.78;10250012;28;20646;-79
2023/08/26 16:46:05;;;;;;;1.45;0.60;;;;;;;23.80;39.24;99842.72;10251597;28;20051;-78
2023/08/26 16:51:08;;;;;;;0.80;0.63;;;;;;;23.34;39.78;99851.28;10243424;28;20078;-76
2023/08/26 16:56:12;;;;;;;1.45;0.50;;;;;;;22.94;40.60;99848.78;10237653;28;20055;-76
2023/08/26 17:01:17;;;;;;;1.35;0.60;;;;;;;22.64;40.29;99859.44;10237892;28;20442;-76
2023/08/26 17:06:21;;;;;;;1.70;0.73;;;;;;;22.88;41.03;99860.59;10252574;28;20053;-78
2023/08/26 17:11:25;;;;;;;2.20;0.80;;;;;;;22.33;41.95;99859.06;10240686;28;20051;-77
2023/08/26 17:16:29;;;;;;;2.75;0.73;;;;;;;22.27;42.25;99870.88;10256934;28;20050;-78
2023/08/26 17:21:32;;;;;;;0.80;0.50;;;;;;;21.55;42.58;99878.00;10256157;28;20046;-79
2023/08/26 17:26:37;;;;;;;2.35;1.00;;;;;;;21.46;43.13;99868.34;10242338;28;20050;-78
2023/08/26 17:31:41;;;;;;;0.77;0.65;;;;;;;20.94;44.82;99870.72;10252796;28;20051;-75
2023/08/26 17:36:44;;;;;;;2.17;0.70;;;;;;;21.21;44.20;99882.59;10258042;28;20047;-77
2023/08/26 17:41:48;;;;;;;3.55;1.35;;;;;;;21.01;44.06;99898.06;10254556;28;20076;-78
2023/08/26 17:46:51;;;;;;;1.27;0.90;;;;;;;20.80;44.61;99896.28;10272118;28;20760;-78
2023/08/26 17:51:56;;;;;;;1.02;0.80;;;;;;;20.56;44.97;99911.25;10261854;28;20101;-78
2023/08/26 17:57:00;;;;;;;2.85;0.90;;;;;;;20.38;45.25;99909.06;10269494;28;20050;-78
2023/08/26 18:02:04;;;;;;;2.47;0.90;;;;;;;20.24;45.59;99912.69;10253593;28;20426;-77
2023/08/26 18:07:07;;;;;;;1.90;0.80;;;;;;;20.12;45.34;99926.03;10258564;28;20050;-78
2023/08/26 18:12:15;;;;;;;3.47;0.80;;;;;;;20.01;45.90;99923.88;10264193;28;20050;-79
2023/08/26 18:17:17;;;;;;;2.28;0.95;;;;;;;19.96;46.43;99929.06;10259335;28;20054;-81
2023/08/26 18:22:20;;;;;;;3.30;0.77;;;;;;;19.82;47.14;99931.66;10262641;28;20062;-80
2023/08/26 18:27:25;;;;;;;3.28;1.17;;;;;;;19.88;48.53;99941.81;10267830;28;20062;-78
2023/08/26 18:32:27;;;;;;;2.03;1.20;;;;;;;19.82;49.21;99945.28;10264136;28;20055;-80
2023/08/26 18:37:31;;;;;;;3.28;1.42;;;;;;;19.68;49.70;99952.50;10255762;28;20053;-80
2023/08/26 18:42:36;;;;;;;2.80;1.80;;;;;;;19.52;50.23;99952.72;10279986;28;20414;-80
2023/08/26 18:47:39;;;;;;;2.60;1.80;;;;;;;19.44;51.01;99950.13;10275244;28;20050;-81
2023/08/26 18:52:42;;;;;;;2.90;1.73;;;;;;;19.23;53.06;99951.78;10267394;28;20057;-78
2023/08/26 18:57:46;;;;;;;3.25;1.20;;;;;;;19.12;53.60;99955.00;10268599;28;20051;-79
2023/08/26 19:02:50;;;;;;;1.60;1.17;;;;;;;19.00;54.11;99957.34;10269696;28;20117;-78
2023/08/26 19:07:53;;;;;;;1.98;1.20;;;;;;;18.87;54.41;99956.31;10263340;28;20399;-82
2023/08/26 19:12:58;;;;;;;1.58;1.17;;;;;;;18.78;54.63;99948.25;10253194;28;20111;-78
2023/08/26 19:18:01;;;;;;;1.20;1.10;;;;;;;18.73;54.73;99958.88;10255270;28;20430;-80
2023/08/26 19:23:05;;;;;;;1.63;1.08;;;;;;;18.63;54.07;99941.97;10264979;28;20039;-79
2023/08/26 19:28:09;;;;;;;2.45;1.08;;;;;;;18.59;54.25;99937.91;10252692;28;20047;-79
2023/08/26 19:33:12;;;;;;;2.28;1.08;;;;;;;18.55;55.02;99942.06;10245566;28;20042;-78
2023/08/26 19:38:15;;;;;;;2.35;1.15;;;;;;;18.53;54.63;99938.69;10253435;28;20054;-78
2023/08/26 19:43:19;;;;;;;2.95;1.63;;;;;;;18.53;54.07;99942.22;10269400;28;20124;-80
2023/08/26 19:48:22;;;;;;;4.18;1.63;;;;;;;18.54;53.81;99934.91;10278964;28;20624;-80
2023/08/26 19:53:26;;;;;;;2.45;1.33;;;;;;;18.56;52.93;99930.97;10259438;28;20042;-80
2023/08/26 19:58:30;;;;;;;2.00;1.35;;;;;;;18.56;53.22;99927.41;10263635;28;20050;-81
2023/08/26 20:03:45;;;;;;;1.92;1.33;;;;;;;18.45;53.22;99925.19;10292340;28;20102;-78
2023/08/26 20:08:48;;;;;;;4.03;1.60;;;;;;;18.41;54.09;99927.44;10300764;28;20074;-80
2023/08/26 20:13:52;;;;;;;2.90;1.40;;;;;;;18.40;54.52;99914.00;10280563;28;20051;-78
2023/08/26 20:18:55;;;;;;;4.47;1.50;;;;;;;18.43;54.41;99909.06;10266904;28;21103;-80
2023/08/26 20:23:58;;;;;;;2.20;1.33;;;;;;;18.55;54.71;99921.16;10283497;28;20512;-79
2023/08/26 20:29:02;;;;;;;1.95;1.75;;;;;;;18.14;58.83;99945.19;10260583;28;20058;-80
2023/08/26 20:34:05;;;;;;;3.30;2.35;;;;;;;16.72;63.57;99939.09;10261857;28;20615;-79
2023/08/26 20:39:10;;;;;;;2.90;2.20;;;;;;;17.34;60.58;99923.91;10254145;28;20047;-81
2023/08/26 20:44:14;;;;;;;5.80;2.50;;;;;;;17.72;59.84;99926.66;10265306;28;20055;-80
2023/08/26 20:49:18;;;;;;;6.18;3.08;;;;;;;17.59;60.61;99933.56;10273539;28;20062;-80
2023/08/26 20:54:21;;;;;;;5.03;2.72;;;;;;;17.47;60.47;99922.31;10259990;28;20070;-79
2023/08/26 20:59:25;;;;;;;3.28;2.50;;;;;;;17.28;60.95;99916.47;10260227;28;20049;-81
2023/08/26 21:04:30;;;;;;;3.13;2.53;;;;;;;17.04;62.14;99918.28;10270761;28;20046;-79
2023/08/26 21:09:34;;;;;;;4.10;2.53;;;;;;;17.29;61.95;99915.47;10253277;28;20051;-81
2023/08/26 21:14:38;;;;;;;5.82;1.95;;;;;;;17.45;61.73;99905.34;10250027;28;20062;-80
2023/08/26 21:19:41;;;;;;;2.45;1.60;;;;;;;16.95;63.37;99909.34;10256637;28;20058;-82
2023/08/26 21:24:44;;;;;;;3.40;2.08;;;;;;;16.78;63.69;99907.72;10253570;28;20417;-78
2023/08/26 21:29:48;;;;;;;3.22;2.00;;;;;;;16.48;64.30;99907.53;10252836;28;20050;-83
2023/08/26 21:34:51;;;;;;;2.40;1.80;;;;;;;16.63;64.38;99904.06;10257560;28;20070;-80
2023/08/26 21:39:54;;;;;;;3.90;2.00;;;;;;;16.54;64.34;99903.25;10250841;28;20045;-77
2023/08/26 21:45:01;;;;;;;5.43;2.38;;;;;;;16.65;63.88;99902.00;10254014;28;20133;-82
2023/08/26 21:50:05;;;;;;;3.33;2.35;;;;;;;16.55;64.73;99894.09;10244503;28;20611;-76
2023/08/26 21:55:08;;;;;;;3.50;2.22;;;;;;;16.23;66.57;99903.97;10240542;28;20054;-77
2023/08/26 22:00:16;;;;;;;4.13;1.90;;;;;;;16.27;66.52;99905.38;10236625;28;20061;-76
2023/08/26 22:05:19;;;;;;;2.70;1.95;;;;;;;16.35;67.03;99908.06;10240513;28;20051;-76
2023/08/26 22:10:22;;;;;;;2.50;2.30;;;;;;;16.03;69.01;99908.09;10241564;28;20497;-77
2023/08/26 22:15:26;;;;;;;3.53;2.47;;;;;;;16.32;67.84;99907.56;10249770;28;20050;-76
2023/08/26 22:20:31;;;;;;;5.32;2.28;;;;;;;16.51;67.25;99914.44;10232335;28;20051;-77
2023/08/26 22:25:34;;;;;;;3.33;2.35;;;;;;;16.57;66.58;99924.59;10240110;28;20039;-78
2023/08/26 22:30:39;;;;;;;2.85;2.40;;;;;;;16.61;66.63;99919.66;10239764;28;20047;-77
2023/08/26 22:35:43;;;;;;;3.97;2.00;;;;;;;16.59;67.14;99926.13;10249663;28;20054;-77
2023/08/26 22:40:46;;;;;;;3.88;2.30;;;;;;;16.55;67.41;99926.63;10244741;28;20115;-77
2023/08/26 22:45:50;;;;;;;3.92;2.30;;;;;;;16.55;67.98;99935.59;10250902;28;20057;-76
2023/08/26 22:50:54;;;;;;;3.97;2.42;;;;;;;16.48;67.53;99931.91;10254335;28;20054;-76
2023/08/26 22:55:56;;;;;;;7.35;2.65;;;;;;;16.53;67.29;99929.50;10265508;28;20054;-77
2023/08/26 23:01:03;;;;;;;3.95;2.22;;;;;;;16.26;67.88;99922.63;10240087;28;20046;-77
2023/08/26 23:06:06;;;;;;;3.75;2.15;;;;;;;16.22;68.37;99917.72;10240771;28;21117;-77
2023/08/26 23:11:09;;;;;;;2.60;2.40;;;;;;;16.38;68.18;99915.00;10243563;28;20675;-77
2023/08/26 23:16:13;;;;;;;3.15;2.30;;;;;;;16.51;67.98;99912.59;10240585;28;20042;-77
2023/08/26 23:21:16;;;;;;;3.42;2.40;;;;;;;16.48;67.95;99904.81;10241297;28;20055;-77
2023/08/26 23:26:19;;;;;;;2.55;2.15;;;;;;;16.46;67.69;99906.00;10253635;28;21149;-77